createdAt,value
2022-09-23T00:26:46.265Z,-55
2022-09-23T00:56:47.394Z,-55
2022-09-23T01:26:52.749Z,-55
2022-09-23T01:56:56.636Z,-55
2022-09-23T02:27:03.252Z,-54
2022-09-23T02:57:10.741Z,-52
2022-09-23T03:27:18.140Z,-52
2022-09-23T03:57:18.645Z,-51
2022-09-23T04:27:24.924Z,-51
2022-09-23T04:57:31.604Z,-51
2022-09-23T05:27:36.585Z,-53
2022-09-23T05:57:46.511Z,-52
2022-09-23T06:27:51.282Z,-51
2022-09-23T06:57:55.157Z,-51
2022-09-23T07:27:55.988Z,-50
2022-09-23T07:57:59.939Z,-53
2022-09-23T08:28:02.156Z,-58
2022-09-23T08:58:11.988Z,-58
2022-09-23T09:28:12.041Z,-57
2022-09-23T09:58:22.151Z,-58
2022-09-23T10:28:24.162Z,-57
2022-09-23T10:58:28.214Z,-59
2022-09-23T11:28:35.449Z,-58
2022-09-23T11:58:43.270Z,-60
2022-09-23T12:28:43.975Z,-57
2022-09-23T12:58:44.772Z,-58
2022-09-23T13:28:47.126Z,-57
2022-09-23T13:58:48.419Z,-57
2022-09-23T14:28:49.549Z,-56
2022-09-23T14:58:58.981Z,-56
2022-09-23T15:28:59.564Z,-57
2022-09-23T15:58:59.666Z,-57
2022-09-23T16:29:01.661Z,-56
2022-09-23T16:59:08.954Z,-55
2022-09-23T17:29:11.180Z,-55
2022-09-23T17:59:11.623Z,-55
2022-09-23T18:29:21.459Z,-56
2022-09-23T18:59:31.141Z,-54
2022-09-23T19:29:32.109Z,-54
2022-09-23T19:59:40.382Z,-55
2022-09-23T20:29:41.331Z,-55
2022-09-23T20:59:50.527Z,-54
2022-09-23T21:29:56.307Z,-55
2022-09-23T22:00:48.620Z,-54
2022-09-23T22:30:54.188Z,-56
2022-09-23T23:01:04.083Z,-55
2022-09-23T23:31:08.631Z,-56
